Termez Airport
UTST : now visible

Aeroporto :











RITROVATECI SU...

 
LOGIN :

Iscrizione | Disclaimer

   EN    FR    IT 

 









Sommario :    VFR   VFR Marginale   IFR   IFR Intensivo   IFR Molto Intensivo
Visibilità : 
Base nubi : 
>= 8 km
>= 3000ft
5 / 8 km
1000 / 3000 ft
1500m / 5 km
500 / 1000 ft
800 / 1500m
200 / 500 ft
< 800m
< 200 ft
Simboli :   Temporali  Nebbia  Neve Forte  Precipitazioni Forti  Vento > 20 kt






- Altitudine del aeroporto : 1027 ft
- Codice IATA : TMJ


UTST - Termez

ULTIMO METAR :
  • 201000Z 03006KT 320V090 CAVOK 15/M05 Q1019 R88/CLRD70 NOSIG

METARs OBSOLETI :
  • 200930Z 06004KT CAVOK 15/M05 Q1019 R88/CLRD70 NOSIG
  • 200900Z 05008KT 350V090 CAVOK 15/M03 Q1019 R88/CLRD70 NOSIG
  • 200830Z 07010KT 040V110 CAVOK 14/M05 Q1020 R88/CLRD70 NOSIG
  • 200800Z 06010KT 030V090 CAVOK 14/M04 Q1021 R88/CLRD70 NOSIG
  • 200730Z 07012KT 040V100 CAVOK 13/M04 Q1021 R88/CLRD70 NOSIG
  • 200700Z 07012KT 040V100 CAVOK 12/M03 Q1022 R88/CLRD70 NOSIG

TAF COR TAF UTST
Valido dal 20 a 06 ore il 21 a 06 ore UTC


200500Z 2006/2106 VRB10KT 6000 SCT050CB BKN100
TEMPO 2006/2017 09016G26KT SCT030 BKN050CB



MetMap, La meteo Aeronautica in un colpo d'occhio ! - Copyright ORBIFLY Dicembre 2007 - Disclaimer

ORBIFLY MET'MAP TEAM :

Programmazione e sviluppo : Alexandra Zaïnal
Concezione : Baudouin d'Aumeries
Aiuto per la programmazione : Marc-Olivier Méhu
Supporto tecnico e logistico : Manuel Goepfert
Aiuto per la traduzione : Arnaldo La Scala

Contatto : metmap@orbifly.com




FONTI E CREDITI :

   NOAA       Earth
Advisory